Time;durP1;ratioP1;P1;durP2;ratioP2;P2;SDS_P1;SDS_P2;PMS_P1;PMS_P2;Temp;Humidity;BMP_temperature;BMP_pressure;BME280_temperature;BME280_humidity;BME280_pressure;Samples;Min_cycle;Max_cycle;Signal;HPM_P1;HPM_P2
2024/04/06 00:01:08;;;;;;;1.55;1.08;;;;;;;;;;4994163;28;20239;-37
2024/04/06 00:03:34;;;;;;;2.90;1.10;;;;;;;;;;4994762;28;20207;-37
2024/04/06 00:06:00;;;;;;;3.45;0.88;;;;;;;;;;4997368;28;20185;-37
2024/04/06 00:08:26;;;;;;;1.52;1.23;;;;;;;;;;4992480;28;20254;-38
2024/04/06 00:10:52;;;;;;;2.97;1.30;;;;;;;;;;4993121;28;20260;-37
2024/04/06 00:13:18;;;;;;;3.40;1.70;;;;;;;;;;4994105;28;20592;-37
2024/04/06 00:15:44;;;;;;;1.80;1.00;;;;;;;;;;4995133;28;20223;-37
2024/04/06 00:18:10;;;;;;;1.25;1.15;;;;;;;;;;4998995;28;20184;-37
2024/04/06 00:20:37;;;;;;;1.77;1.17;;;;;;;;;;4994468;28;20186;-37
2024/04/06 00:23:03;;;;;;;1.38;1.08;;;;;;;;;;4993994;28;20354;-37
2024/04/06 00:25:29;;;;;;;1.48;1.38;;;;;;;;;;4991031;28;20853;-37
2024/04/06 00:27:55;;;;;;;1.20;1.10;;;;;;;;;;4993193;28;20211;-37
2024/04/06 00:30:21;;;;;;;1.92;1.35;;;;;;;;;;4998901;28;20211;-37
2024/04/06 00:32:47;;;;;;;2.28;0.98;;;;;;;;;;4999438;28;20212;-37
2024/04/06 00:35:12;;;;;;;1.50;1.20;;;;;;;;;;4993854;28;20197;-37
2024/04/06 00:37:38;;;;;;;1.38;1.00;;;;;;;;;;4991989;28;20189;-37
2024/04/06 00:40:05;;;;;;;2.65;1.00;;;;;;;;;;4993991;28;20467;-37
2024/04/06 00:42:31;;;;;;;0.75;0.75;;;;;;;;;;4998563;28;20185;-37
2024/04/06 00:44:57;;;;;;;0.73;0.73;;;;;;;;;;4998612;28;20189;-37
2024/04/06 00:47:23;;;;;;;2.97;1.00;;;;;;;;;;4995889;28;20193;-38
2024/04/06 00:49:49;;;;;;;1.58;1.00;;;;;;;;;;4990333;28;20551;-38
2024/04/06 00:52:14;;;;;;;1.38;1.05;;;;;;;;;;4992586;28;20340;-38
2024/04/06 00:54:41;;;;;;;1.10;1.00;;;;;;;;;;4993110;28;20271;-38
2024/04/06 00:57:07;;;;;;;1.85;0.95;;;;;;;;;;4998544;28;20179;-38
2024/04/06 00:59:37;;;;;;;0.93;0.80;;;;;;;;;;4991073;28;20485;-38
2024/04/06 01:02:03;;;;;;;1.42;0.82;;;;;;;;;;4993197;28;20189;-37
2024/04/06 01:04:29;;;;;;;1.40;0.98;;;;;;;;;;4997758;28;20189;-37
2024/04/06 01:06:56;;;;;;;2.88;1.05;;;;;;;;;;4993840;28;20208;-37
2024/04/06 01:09:22;;;;;;;1.10;1.00;;;;;;;;;;4993334;28;20188;-37
2024/04/06 01:11:48;;;;;;;1.40;0.90;;;;;;;;;;4992514;28;20268;-37
2024/04/06 01:14:14;;;;;;;1.35;1.00;;;;;;;;;;4997874;28;20284;-38
2024/04/06 01:16:40;;;;;;;3.20;0.90;;;;;;;;;;4995512;28;20651;-38
2024/04/06 01:19:06;;;;;;;1.92;1.10;;;;;;;;;;4992599;28;20260;-38
2024/04/06 01:21:32;;;;;;;4.10;1.23;;;;;;;;;;4991208;28;20181;-38
2024/04/06 01:23:58;;;;;;;1.23;1.00;;;;;;;;;;4992457;28;20303;-38
2024/04/06 01:26:24;;;;;;;1.67;1.00;;;;;;;;;;4992377;28;20196;-38
2024/04/06 01:28:50;;;;;;;1.85;0.90;;;;;;;;;;4992183;28;20195;-38
2024/04/06 01:31:16;;;;;;;1.20;0.80;;;;;;;;;;5002006;28;20188;-38
2024/04/06 01:33:41;;;;;;;2.03;1.00;;;;;;;;;;4993807;28;20477;-38
2024/04/06 01:36:08;;;;;;;1.50;0.82;;;;;;;;;;5002138;28;20223;-38
2024/04/06 01:38:34;;;;;;;1.15;0.98;;;;;;;;;;4994401;28;20189;-38
2024/04/06 01:41:00;;;;;;;6.57;1.20;;;;;;;;;;4993217;28;20443;-38
2024/04/06 01:43:26;;;;;;;1.45;0.80;;;;;;;;;;4998241;28;20199;-38
2024/04/06 01:45:52;;;;;;;1.30;0.90;;;;;;;;;;4992897;28;20272;-38
2024/04/06 01:48:18;;;;;;;3.22;0.70;;;;;;;;;;4989869;28;20612;-38
2024/04/06 01:50:44;;;;;;;1.27;0.80;;;;;;;;;;4992492;28;20189;-38
2024/04/06 01:53:10;;;;;;;1.83;1.08;;;;;;;;;;4994896;28;20209;-38
2024/04/06 01:55:36;;;;;;;2.40;0.90;;;;;;;;;;4997818;28;20565;-37
2024/04/06 01:58:02;;;;;;;3.17;0.88;;;;;;;;;;4993905;28;20190;-37
2024/04/06 02:00:27;;;;;;;2.70;0.90;;;;;;;;;;4991736;28;20304;-37
2024/04/06 02:02:53;;;;;;;1.27;0.80;;;;;;;;;;4990695;28;20256;-37
2024/04/06 02:05:19;;;;;;;1.20;0.85;;;;;;;;;;4993594;28;20189;-37
2024/04/06 02:07:45;;;;;;;1.17;0.93;;;;;;;;;;4989521;28;20196;-37
2024/04/06 02:10:11;;;;;;;0.85;0.80;;;;;;;;;;4996579;28;20557;-37
2024/04/06 02:12:37;;;;;;;2.90;0.70;;;;;;;;;;4996845;28;20263;-37
2024/04/06 02:15:03;;;;;;;0.88;0.75;;;;;;;;;;4993209;28;20193;-37
2024/04/06 02:17:29;;;;;;;0.93;0.90;;;;;;;;;;4995160;28;20196;-37
2024/04/06 02:19:55;;;;;;;0.82;0.82;;;;;;;;;;4992450;28;20173;-37
2024/04/06 02:22:21;;;;;;;1.63;1.00;;;;;;;;;;4990581;28;20548;-37
2024/04/06 02:24:47;;;;;;;0.90;0.90;;;;;;;;;;4992274;28;20196;-37
2024/04/06 02:27:13;;;;;;;1.60;0.93;;;;;;;;;;4991674;28;20185;-38
2024/04/06 02:29:39;;;;;;;1.10;1.00;;;;;;;;;;4992020;28;20185;-38
2024/04/06 02:32:05;;;;;;;1.02;0.88;;;;;;;;;;4991638;28;20208;-38
2024/04/06 02:34:33;;;;;;;1.13;0.70;;;;;;;;;;4991951;28;20293;-38
2024/04/06 02:36:59;;;;;;;0.70;0.70;;;;;;;;;;4994094;28;20268;-38
2024/04/06 02:39:25;;;;;;;1.30;0.82;;;;;;;;;;4996746;28;20228;-38
2024/04/06 02:41:51;;;;;;;1.05;0.93;;;;;;;;;;4998166;28;20195;-38
2024/04/06 02:44:17;;;;;;;3.15;0.77;;;;;;;;;;4996685;28;20549;-37
2024/04/06 02:46:43;;;;;;;3.40;1.08;;;;;;;;;;4993855;28;20261;-37
2024/04/06 02:49:10;;;;;;;1.05;1.00;;;;;;;;;;4991067;28;20205;-37
2024/04/06 02:51:35;;;;;;;1.83;0.80;;;;;;;;;;4991658;28;20189;-37
2024/04/06 02:54:01;;;;;;;1.42;0.85;;;;;;;;;;4991132;28;20216;-38
2024/04/06 02:56:27;;;;;;;1.45;0.80;;;;;;;;;;4993015;28;20235;-38
2024/04/06 02:58:53;;;;;;;2.47;1.10;;;;;;;;;;4993491;28;20260;-38
2024/04/06 03:01:19;;;;;;;1.25;1.00;;;;;;;;;;4992396;28;20196;-38
2024/04/06 03:03:45;;;;;;;2.72;1.23;;;;;;;;;;4993280;28;20189;-37
2024/04/06 03:06:11;;;;;;;1.35;1.08;;;;;;;;;;4990182;28;20223;-38
2024/04/06 03:08:37;;;;;;;0.80;0.80;;;;;;;;;;4993184;28;20197;-38
2024/04/06 03:11:03;;;;;;;3.13;1.00;;;;;;;;;;4995405;28;20192;-38
2024/04/06 03:13:29;;;;;;;1.30;1.00;;;;;;;;;;4995488;28;20216;-38
2024/04/06 03:15:55;;;;;;;1.00;0.90;;;;;;;;;;4998492;28;20222;-38
2024/04/06 03:18:21;;;;;;;0.95;0.80;;;;;;;;;;4994269;28;20203;-38
2024/04/06 03:20:47;;;;;;;1.95;0.82;;;;;;;;;;4994759;28;20211;-38
2024/04/06 03:23:13;;;;;;;1.08;0.98;;;;;;;;;;4994625;28;20441;-37
2024/04/06 03:25:39;;;;;;;1.85;0.90;;;;;;;;;;4995477;28;20299;-37
2024/04/06 03:28:05;;;;;;;1.35;0.80;;;;;;;;;;4994017;28;20185;-37
2024/04/06 03:30:31;;;;;;;1.17;0.90;;;;;;;;;;4991482;28;20291;-37
2024/04/06 03:32:57;;;;;;;1.40;1.30;;;;;;;;;;5000625;28;20205;-38
2024/04/06 03:35:23;;;;;;;0.80;0.80;;;;;;;;;;4992357;28;20201;-38
2024/04/06 03:37:50;;;;;;;1.30;1.00;;;;;;;;;;4994480;28;20192;-38
2024/04/06 03:40:16;;;;;;;1.40;0.90;;;;;;;;;;4995178;28;20178;-37
2024/04/06 03:42:42;;;;;;;1.88;0.77;;;;;;;;;;4995166;28;20192;-37
2024/04/06 03:45:10;;;;;;;2.45;0.90;;;;;;;;;;4995182;28;20624;-38
2024/04/06 03:47:37;;;;;;;1.92;0.93;;;;;;;;;;5000444;28;20556;-38
2024/04/06 03:50:03;;;;;;;0.80;0.80;;;;;;;;;;4993660;28;20192;-37
2024/04/06 03:52:29;;;;;;;0.90;0.90;;;;;;;;;;4992502;28;20479;-37
2024/04/06 03:54:54;;;;;;;1.00;0.90;;;;;;;;;;4993990;28;20211;-38
2024/04/06 03:57:20;;;;;;;2.20;0.88;;;;;;;;;;4995814;28;20196;-37
2024/04/06 03:59:46;;;;;;;1.10;1.00;;;;;;;;;;4998888;28;20195;-37
2024/04/06 04:02:12;;;;;;;1.35;0.80;;;;;;;;;;5000860;28;20251;-37
2024/04/06 04:04:38;;;;;;;3.53;1.10;;;;;;;;;;4996722;28;20176;-37
2024/04/06 04:07:04;;;;;;;1.42;0.90;;;;;;;;;;4993670;28;20556;-38
2024/04/06 04:09:30;;;;;;;1.10;0.95;;;;;;;;;;4994109;28;20192;-38
2024/04/06 04:11:56;;;;;;;1.08;0.90;;;;;;;;;;4995951;28;20189;-37
2024/04/06 04:14:22;;;;;;;2.13;1.10;;;;;;;;;;4993852;28;20641;-38
2024/04/06 04:16:48;;;;;;;2.67;1.00;;;;;;;;;;4993992;28;20228;-38
2024/04/06 04:19:14;;;;;;;1.88;1.00;;;;;;;;;;4991515;28;20224;-38
2024/04/06 04:21:40;;;;;;;0.93;0.88;;;;;;;;;;4998359;28;20201;-38
2024/04/06 04:24:06;;;;;;;1.27;0.82;;;;;;;;;;4994014;28;20548;-38
2024/04/06 04:26:32;;;;;;;1.65;1.10;;;;;;;;;;4994394;28;20430;-38
2024/04/06 04:28:58;;;;;;;1.20;1.00;;;;;;;;;;4992590;28;20181;-38
2024/04/06 04:31:24;;;;;;;2.92;0.88;;;;;;;;;;4992730;28;20189;-37
2024/04/06 04:33:50;;;;;;;1.88;1.00;;;;;;;;;;4994888;28;20212;-38
2024/04/06 04:36:16;;;;;;;3.13;0.70;;;;;;;;;;4992060;28;20668;-37
2024/04/06 04:38:42;;;;;;;0.90;0.90;;;;;;;;;;4996054;28;20215;-38
2024/04/06 04:41:07;;;;;;;3.45;1.30;;;;;;;;;;4993735;28;22094;-45
2024/04/06 04:43:33;;;;;;;1.20;1.10;;;;;;;;;;4992393;28;20224;-44
2024/04/06 04:45:59;;;;;;;3.03;1.10;;;;;;;;;;4994121;28;20699;-44
2024/04/06 04:48:25;;;;;;;1.63;0.90;;;;;;;;;;4992664;28;20196;-44
2024/04/06 04:50:51;;;;;;;1.98;1.10;;;;;;;;;;4992793;28;20552;-44
2024/04/06 04:53:17;;;;;;;2.72;1.40;;;;;;;;;;4990737;28;20205;-44
2024/04/06 04:55:44;;;;;;;1.10;1.00;;;;;;;;;;4993925;28;20186;-44
2024/04/06 04:58:10;;;;;;;1.10;0.82;;;;;;;;;;4996860;28;21480;-44
2024/04/06 05:00:36;;;;;;;0.88;0.88;;;;;;;;;;4992963;28;20184;-46
2024/04/06 05:03:02;;;;;;;2.75;1.48;;;;;;;;;;4991589;28;20465;-44
2024/04/06 05:05:28;;;;;;;2.75;1.30;;;;;;;;;;4987650;28;20200;-44
2024/04/06 05:07:54;;;;;;;6.53;1.52;;;;;;;;;;4992732;28;20310;-44
2024/04/06 05:10:20;;;;;;;6.57;1.50;;;;;;;;;;4999005;28;20491;-44
2024/04/06 05:12:46;;;;;;;2.17;1.40;;;;;;;;;;4994824;28;20305;-43
2024/04/06 05:15:12;;;;;;;4.47;1.60;;;;;;;;;;4995689;28;20189;-44
2024/04/06 05:17:38;;;;;;;2.25;1.15;;;;;;;;;;4993923;28;20185;-44
2024/04/06 05:20:05;;;;;;;1.90;1.00;;;;;;;;;;4991316;28;20593;-44
2024/04/06 05:22:31;;;;;;;2.30;0.90;;;;;;;;;;4991037;28;20188;-44
2024/04/06 05:24:57;;;;;;;2.47;1.33;;;;;;;;;;4992028;28;20199;-44
2024/04/06 05:27:24;;;;;;;3.15;1.25;;;;;;;;;;4991683;28;20433;-44
2024/04/06 05:29:50;;;;;;;3.08;1.00;;;;;;;;;;4995418;28;20216;-44
2024/04/06 05:32:16;;;;;;;2.58;1.05;;;;;;;;;;4991376;28;20240;-44
2024/04/06 05:34:42;;;;;;;1.15;0.88;;;;;;;;;;4991390;28;20205;-44
2024/04/06 05:37:08;;;;;;;3.00;1.35;;;;;;;;;;4991899;28;20213;-44
2024/04/06 05:39:34;;;;;;;1.15;1.02;;;;;;;;;;4993931;28;20207;-44
2024/04/06 05:42:00;;;;;;;2.58;1.23;;;;;;;;;;4999577;28;20568;-44
2024/04/06 05:44:25;;;;;;;3.13;1.00;;;;;;;;;;5001582;28;20185;-44
2024/04/06 05:46:52;;;;;;;1.23;1.00;;;;;;;;;;4995461;28;20215;-44
2024/04/06 05:49:17;;;;;;;2.13;0.85;;;;;;;;;;4990659;28;20523;-44
2024/04/06 05:51:43;;;;;;;1.40;0.95;;;;;;;;;;4990957;28;20260;-44
2024/04/06 05:54:09;;;;;;;2.58;1.27;;;;;;;;;;4993033;28;20204;-44
2024/04/06 05:56:35;;;;;;;2.35;1.08;;;;;;;;;;4993049;28;20211;-44
2024/04/06 05:59:01;;;;;;;1.50;1.00;;;;;;;;;;4995606;28;20177;-44
2024/04/06 06:01:27;;;;;;;2.00;1.10;;;;;;;;;;4993949;28;20185;-43
2024/04/06 06:03:53;;;;;;;2.10;1.25;;;;;;;;;;4992267;28;20177;-39
2024/04/06 06:06:19;;;;;;;1.70;1.20;;;;;;;;;;4990504;28;20584;-38
2024/04/06 06:08:45;;;;;;;2.20;0.90;;;;;;;;;;4996849;28;20275;-38
2024/04/06 06:11:10;;;;;;;3.25;1.02;;;;;;;;;;4989164;28;20177;-38
2024/04/06 06:13:36;;;;;;;1.27;1.10;;;;;;;;;;4991122;28;20220;-38
2024/04/06 06:16:02;;;;;;;3.50;1.25;;;;;;;;;;4991654;28;20584;-41
2024/04/06 06:18:29;;;;;;;2.35;0.90;;;;;;;;;;4993186;28;20213;-44
2024/04/06 06:20:54;;;;;;;1.23;1.00;;;;;;;;;;4993369;28;20182;-40
2024/04/06 06:23:20;;;;;;;3.00;1.00;;;;;;;;;;4989606;28;20252;-36
2024/04/06 06:25:47;;;;;;;4.43;1.20;;;;;;;;;;5001208;28;20232;-40
2024/04/06 06:28:13;;;;;;;2.67;1.10;;;;;;;;;;4990457;28;20200;-37
2024/04/06 06:30:42;;;;;;;1.48;0.90;;;;;;;;;;4993213;28;20196;-37
2024/04/06 06:33:08;;;;;;;1.10;0.93;;;;;;;;;;4993250;28;20245;-37
2024/04/06 06:35:35;;;;;;;1.17;1.00;;;;;;;;;;4993464;28;20448;-37
2024/04/06 06:38:01;;;;;;;1.45;1.27;;;;;;;;;;4995749;28;20177;-37
2024/04/06 06:40:27;;;;;;;2.65;1.00;;;;;;;;;;4992419;28;20181;-37
2024/04/06 06:42:53;;;;;;;2.42;1.20;;;;;;;;;;4999146;28;20189;-36
2024/04/06 06:45:19;;;;;;;1.77;0.90;;;;;;;;;;4995847;28;20181;-36
2024/04/06 06:47:45;;;;;;;1.48;0.90;;;;;;;;;;4999786;28;20185;-36
2024/04/06 06:50:10;;;;;;;1.83;0.93;;;;;;;;;;4994054;28;20565;-36
2024/04/06 06:52:36;;;;;;;2.22;0.95;;;;;;;;;;5001310;28;20227;-37
2024/04/06 06:55:03;;;;;;;2.75;0.80;;;;;;;;;;5005143;28;20181;-37
2024/04/06 06:57:29;;;;;;;2.75;1.08;;;;;;;;;;4998208;28;20193;-36
2024/04/06 06:59:55;;;;;;;5.15;0.95;;;;;;;;;;4999842;28;20265;-36
2024/04/06 07:02:21;;;;;;;1.85;1.00;;;;;;;;;;4995218;28;20302;-36
2024/04/06 07:04:47;;;;;;;0.70;0.70;;;;;;;;;;5003471;28;20192;-36
2024/04/06 07:07:13;;;;;;;1.20;0.93;;;;;;;;;;4994587;28;20209;-36
2024/04/06 07:09:39;;;;;;;1.33;0.88;;;;;;;;;;5000562;28;20178;-36
2024/04/06 07:12:07;;;;;;;1.23;1.02;;;;;;;;;;4994347;28;20173;-36
2024/04/06 07:14:33;;;;;;;1.52;0.80;;;;;;;;;;4994347;28;20200;-36
2024/04/06 07:16:59;;;;;;;1.42;1.00;;;;;;;;;;4991720;28;20197;-36
2024/04/06 07:19:25;;;;;;;1.23;1.00;;;;;;;;;;4993771;28;20188;-36
2024/04/06 07:21:50;;;;;;;1.27;0.88;;;;;;;;;;4995012;28;20185;-36
2024/04/06 07:24:16;;;;;;;1.70;0.90;;;;;;;;;;4995053;28;20188;-37
2024/04/06 07:26:42;;;;;;;1.95;0.82;;;;;;;;;;4994400;28;20178;-36
2024/04/06 07:29:08;;;;;;;2.47;1.20;;;;;;;;;;4995011;28;20493;-37
2024/04/06 07:31:34;;;;;;;2.38;1.25;;;;;;;;;;4991167;28;20267;-37
2024/04/06 07:34:00;;;;;;;2.42;0.98;;;;;;;;;;4995611;28;20243;-37
2024/04/06 07:36:26;;;;;;;1.42;1.00;;;;;;;;;;4993774;28;20188;-37
2024/04/06 07:38:52;;;;;;;3.97;1.10;;;;;;;;;;4999206;28;20180;-37
2024/04/06 07:41:18;;;;;;;4.07;1.40;;;;;;;;;;5001734;28;20545;-37
2024/04/06 07:43:44;;;;;;;1.65;1.13;;;;;;;;;;5001357;28;20213;-37
2024/04/06 07:46:10;;;;;;;1.38;0.90;;;;;;;;;;4994750;28;20275;-36
2024/04/06 07:48:35;;;;;;;2.83;1.27;;;;;;;;;;5000048;28;20801;-36
2024/04/06 07:51:01;;;;;;;3.05;1.00;;;;;;;;;;4994560;28;20185;-36
2024/04/06 07:53:29;;;;;;;1.80;1.00;;;;;;;;;;4994454;28;20454;-37
2024/04/06 07:55:55;;;;;;;1.30;1.00;;;;;;;;;;4995573;28;20255;-37
2024/04/06 07:58:21;;;;;;;1.30;1.02;;;;;;;;;;4994902;28;20213;-37
2024/04/06 08:00:48;;;;;;;5.07;1.25;;;;;;;;;;4992379;28;20195;-37
2024/04/06 08:03:14;;;;;;;2.63;1.20;;;;;;;;;;4993856;28;20537;-37
2024/04/06 08:05:40;;;;;;;4.82;1.25;;;;;;;;;;4995048;28;20195;-37
2024/04/06 08:08:07;;;;;;;2.63;1.17;;;;;;;;;;4995184;28;20242;-37
2024/04/06 08:10:33;;;;;;;3.38;1.15;;;;;;;;;;4994365;28;20214;-37
2024/04/06 08:12:59;;;;;;;1.60;1.33;;;;;;;;;;4994084;28;20236;-37
2024/04/06 08:15:25;;;;;;;2.03;1.33;;;;;;;;;;4994737;28;20367;-36
2024/04/06 08:17:54;;;;;;;2.97;1.10;;;;;;;;;;4992545;28;20276;-36
2024/04/06 08:20:20;;;;;;;1.20;0.80;;;;;;;;;;4992660;28;20177;-37
2024/04/06 08:22:47;;;;;;;4.57;1.30;;;;;;;;;;4993192;28;20195;-37
2024/04/06 08:25:13;;;;;;;2.05;1.30;;;;;;;;;;4994037;28;20348;-36
2024/04/06 08:27:39;;;;;;;1.85;1.10;;;;;;;;;;4996210;28;20263;-36
2024/04/06 08:30:06;;;;;;;3.05;1.30;;;;;;;;;;5002800;28;20549;-36
2024/04/06 08:32:33;;;;;;;3.35;1.20;;;;;;;;;;4992553;28;20213;-37
2024/04/06 08:34:59;;;;;;;3.15;1.30;;;;;;;;;;4993046;28;20189;-37
2024/04/06 08:37:26;;;;;;;1.35;1.20;;;;;;;;;;4993600;28;20232;-37
2024/04/06 08:39:52;;;;;;;2.20;1.20;;;;;;;;;;4994881;28;20200;-37
2024/04/06 08:42:18;;;;;;;1.60;1.10;;;;;;;;;;5000991;28;20189;-36
2024/04/06 08:44:45;;;;;;;4.50;1.30;;;;;;;;;;4995342;28;20185;-36
2024/04/06 08:47:12;;;;;;;5.18;1.20;;;;;;;;;;4993711;28;20303;-36
2024/04/06 08:49:39;;;;;;;1.60;1.00;;;;;;;;;;4989592;28;20193;-36
2024/04/06 08:52:05;;;;;;;1.45;1.00;;;;;;;;;;4993483;28;20196;-36
2024/04/06 08:54:31;;;;;;;1.80;1.13;;;;;;;;;;4994399;28;20587;-37
2024/04/06 08:56:59;;;;;;;2.25;1.20;;;;;;;;;;4992635;28;20190;-36
2024/04/06 08:59:25;;;;;;;1.83;1.20;;;;;;;;;;4995665;28;20181;-37
2024/04/06 09:01:51;;;;;;;1.45;0.98;;;;;;;;;;4996156;28;20192;-37
2024/04/06 09:04:17;;;;;;;3.67;0.98;;;;;;;;;;4995422;28;20227;-36
2024/04/06 09:06:44;;;;;;;1.17;0.93;;;;;;;;;;4997022;28;20211;-37
2024/04/06 09:09:10;;;;;;;3.63;1.30;;;;;;;;;;4996200;28;20180;-37
2024/04/06 09:11:38;;;;;;;3.90;0.90;;;;;;;;;;4991780;28;20185;-36
2024/04/06 09:14:04;;;;;;;2.75;1.27;;;;;;;;;;4997539;28;20299;-36
2024/04/06 09:16:30;;;;;;;4.30;1.88;;;;;;;;;;4992646;28;20208;-36
2024/04/06 09:18:56;;;;;;;1.67;1.10;;;;;;;;;;4991303;28;20181;-36
2024/04/06 09:21:22;;;;;;;2.40;1.13;;;;;;;;;;4992939;28;20220;-36
2024/04/06 09:23:53;;;;;;;9.38;3.22;;;;;;;;;;4992272;28;20413;-36
2024/04/06 09:26:20;;;;;;;4.63;3.17;;;;;;;;;;4995193;28;20223;-36
2024/04/06 09:28:48;;;;;;;2.97;1.30;;;;;;;;;;4993640;28;20185;-37
2024/04/06 09:31:17;;;;;;;5.63;1.70;;;;;;;;;;4991964;28;20196;-37
2024/04/06 09:33:45;;;;;;;1.45;1.20;;;;;;;;;;4991557;28;20607;-36
2024/04/06 09:36:11;;;;;;;4.90;1.52;;;;;;;;;;4993168;28;20282;-37
2024/04/06 09:38:38;;;;;;;2.40;1.17;;;;;;;;;;4995753;28;20231;-37
2024/04/06 09:41:05;;;;;;;1.55;1.10;;;;;;;;;;4998399;28;20207;-37
2024/04/06 09:43:31;;;;;;;5.57;1.40;;;;;;;;;;4992601;28;20472;-37
2024/04/06 09:45:57;;;;;;;3.38;1.00;;;;;;;;;;4993723;28;20434;-36
2024/04/06 09:48:25;;;;;;;2.22;1.20;;;;;;;;;;4992167;28;20200;-36
2024/04/06 09:50:50;;;;;;;2.17;1.10;;;;;;;;;;4990480;28;20256;-36
2024/04/06 09:53:17;;;;;;;1.48;1.02;;;;;;;;;;4992271;28;20296;-37
2024/04/06 09:55:44;;;;;;;3.72;1.50;;;;;;;;;;4992589;28;20185;-37
2024/04/06 09:58:10;;;;;;;1.05;1.00;;;;;;;;;;4993359;28;20214;-37
2024/04/06 10:00:38;;;;;;;3.92;1.40;;;;;;;;;;4998726;28;20188;-37
2024/04/06 10:03:04;;;;;;;2.45;1.25;;;;;;;;;;4998591;28;20185;-37
2024/04/06 10:05:44;;;;;;;1.67;1.17;;;;;;;;;;4991557;28;20193;-37
2024/04/06 10:08:10;;;;;;;2.55;1.30;;;;;;;;;;4991082;28;20203;-37
2024/04/06 10:10:40;;;;;;;1.27;0.95;;;;;;;;;;4987944;28;20193;-37
2024/04/06 10:13:07;;;;;;;2.40;1.25;;;;;;;;;;4992033;28;20493;-37
2024/04/06 10:15:33;;;;;;;2.55;1.20;;;;;;;;;;4991819;28;20205;-37
2024/04/06 10:17:59;;;;;;;1.60;1.05;;;;;;;;;;4995254;28;20208;-37
2024/04/06 10:20:26;;;;;;;2.58;1.15;;;;;;;;;;5000297;28;20889;-37
2024/04/06 10:22:59;;;;;;;1.35;0.90;;;;;;;;;;4998814;28;20189;-37
2024/04/06 10:25:32;;;;;;;1.38;0.90;;;;;;;;;;4996817;28;20187;-37
2024/04/06 10:28:05;;;;;;;2.53;1.50;;;;;;;;;;5000191;28;20265;-36
2024/04/06 10:30:34;;;;;;;1.23;0.80;;;;;;;;;;5002036;28;20217;-37
2024/04/06 10:33:00;;;;;;;3.33;1.13;;;;;;;;;;4995590;28;20221;-36
2024/04/06 10:35:26;;;;;;;2.75;1.20;;;;;;;;;;5000893;28;20192;-36
2024/04/06 10:37:52;;;;;;;3.20;1.23;;;;;;;;;;4996447;28;20267;-37
2024/04/06 10:40:22;;;;;;;1.00;0.80;;;;;;;;;;5001804;28;20557;-36
2024/04/06 10:42:49;;;;;;;2.95;1.10;;;;;;;;;;4995628;28;20646;-36
2024/04/06 10:45:16;;;;;;;3.70;1.33;;;;;;;;;;4998271;28;20239;-36
2024/04/06 10:47:42;;;;;;;2.58;1.00;;;;;;;;;;4994923;28;20454;-36
2024/04/06 10:50:08;;;;;;;3.53;1.30;;;;;;;;;;4996322;28;20178;-36
2024/04/06 10:52:37;;;;;;;1.10;1.00;;;;;;;;;;4998944;28;20232;-37
2024/04/06 10:55:09;;;;;;;2.88;1.15;;;;;;;;;;5000748;28;20656;-37
2024/04/06 10:57:38;;;;;;;2.20;1.15;;;;;;;;;;4996471;28;20181;-37
2024/04/06 11:00:08;;;;;;;3.70;1.40;;;;;;;;;;4995107;28;20216;-37
2024/04/06 11:02:34;;;;;;;2.65;1.23;;;;;;;;;;5006589;28;20185;-37
2024/04/06 11:05:00;;;;;;;1.17;1.02;;;;;;;;;;4996156;28;20545;-37
2024/04/06 11:07:26;;;;;;;2.67;1.25;;;;;;;;;;5002510;28;20209;-37
2024/04/06 11:09:53;;;;;;;3.85;1.02;;;;;;;;;;4994937;28;20255;-37
2024/04/06 11:12:19;;;;;;;3.25;1.02;;;;;;;;;;4994161;28;20220;-37
2024/04/06 11:14:54;;;;;;;1.73;0.80;;;;;;;;;;4999943;28;20560;-36
2024/04/06 11:17:20;;;;;;;3.00;1.00;;;;;;;;;;4996140;28;20203;-37
2024/04/06 11:19:52;;;;;;;1.02;0.80;;;;;;;;;;5000820;28;20177;-37
2024/04/06 11:22:18;;;;;;;1.00;0.98;;;;;;;;;;4997821;28;20195;-37
2024/04/06 11:24:44;;;;;;;4.30;0.77;;;;;;;;;;4997347;28;20541;-37
2024/04/06 11:27:10;;;;;;;3.00;1.20;;;;;;;;;;4994400;28;20192;-37
2024/04/06 11:29:36;;;;;;;1.20;1.00;;;;;;;;;;4992228;28;20173;-37
2024/04/06 11:32:02;;;;;;;1.52;0.95;;;;;;;;;;4998168;28;20735;-37
2024/04/06 11:34:28;;;;;;;2.80;0.93;;;;;;;;;;4999296;28;20221;-37
2024/04/06 11:36:55;;;;;;;1.40;1.05;;;;;;;;;;4992145;28;20173;-37
2024/04/06 11:39:22;;;;;;;3.15;0.90;;;;;;;;;;4995824;28;20265;-38
2024/04/06 11:41:48;;;;;;;2.50;0.90;;;;;;;;;;5004415;28;20193;-37
2024/04/06 11:44:14;;;;;;;3.40;1.77;;;;;;;;;;4994221;28;20185;-37
2024/04/06 11:46:40;;;;;;;2.08;1.00;;;;;;;;;;4995281;28;20235;-37
2024/04/06 11:49:06;;;;;;;2.35;1.10;;;;;;;;;;4992529;28;20231;-37
2024/04/06 11:51:32;;;;;;;2.05;0.93;;;;;;;;;;4994894;28;20197;-37
2024/04/06 11:53:58;;;;;;;1.05;0.95;;;;;;;;;;4995848;28;20213;-37
2024/04/06 11:56:24;;;;;;;0.90;0.80;;;;;;;;;;4994291;28;20201;-37
2024/04/06 11:58:50;;;;;;;2.28;0.95;;;;;;;;;;4992700;28;20200;-37
2024/04/06 12:01:17;;;;;;;1.40;1.00;;;;;;;;;;4994506;28;20177;-37
2024/04/06 12:03:43;;;;;;;2.38;0.98;;;;;;;;;;4992858;28;20189;-37
2024/04/06 12:06:11;;;;;;;4.63;1.02;;;;;;;;;;4995388;28;20196;-37
2024/04/06 12:08:44;;;;;;;3.55;0.95;;;;;;;;;;4993732;28;20189;-37
2024/04/06 12:11:10;;;;;;;2.70;1.08;;;;;;;;;;4995518;28;20200;-37
2024/04/06 12:13:36;;;;;;;1.70;1.08;;;;;;;;;;4992972;28;20205;-37
2024/04/06 12:16:03;;;;;;;5.72;1.15;;;;;;;;;;5001779;28;20909;-37
2024/04/06 12:18:29;;;;;;;1.75;1.45;;;;;;;;;;4992372;28;20300;-37
2024/04/06 12:20:54;;;;;;;2.22;1.08;;;;;;;;;;4999333;28;20259;-37
2024/04/06 12:23:20;;;;;;;1.88;1.10;;;;;;;;;;4994783;28;20203;-37
2024/04/06 12:25:46;;;;;;;1.75;1.10;;;;;;;;;;4993077;28;20216;-37
2024/04/06 12:28:12;;;;;;;3.47;1.20;;;;;;;;;;4994724;28;20201;-37
2024/04/06 12:30:38;;;;;;;3.38;1.30;;;;;;;;;;4993407;28;20185;-37
2024/04/06 12:33:04;;;;;;;1.38;0.90;;;;;;;;;;4993413;28;21487;-37
2024/04/06 12:35:30;;;;;;;2.10;1.00;;;;;;;;;;4996577;28;20270;-37
2024/04/06 12:37:59;;;;;;;4.82;1.27;;;;;;;;;;4993991;28;20672;-37
2024/04/06 12:40:26;;;;;;;1.70;1.00;;;;;;;;;;4999950;28;20185;-37
2024/04/06 12:42:53;;;;;;;1.23;1.10;;;;;;;;;;4994099;28;20209;-37
2024/04/06 12:45:19;;;;;;;1.67;0.90;;;;;;;;;;4993426;28;20185;-37
2024/04/06 12:47:45;;;;;;;1.40;1.02;;;;;;;;;;4993949;28;20268;-37
2024/04/06 12:50:11;;;;;;;1.75;1.00;;;;;;;;;;4990963;28;20185;-37
2024/04/06 12:52:37;;;;;;;1.02;0.93;;;;;;;;;;4992805;28;20224;-37
2024/04/06 12:55:03;;;;;;;1.77;1.02;;;;;;;;;;5001986;28;20228;-37
2024/04/06 12:57:42;;;;;;;2.92;1.20;;;;;;;;;;4991683;28;20272;-37
2024/04/06 13:00:15;;;;;;;2.38;1.10;;;;;;;;;;4990354;28;20180;-37
2024/04/06 13:02:41;;;;;;;2.03;1.10;;;;;;;;;;4992974;28;20188;-41
2024/04/06 13:05:07;;;;;;;2.33;1.27;;;;;;;;;;4993538;28;20189;-41
2024/04/06 13:07:34;;;;;;;1.10;1.00;;;;;;;;;;4995972;28;20248;-41
2024/04/06 13:10:00;;;;;;;1.23;0.95;;;;;;;;;;4996889;28;20813;-41
2024/04/06 13:12:32;;;;;;;1.83;0.90;;;;;;;;;;4993367;28;20196;-41
2024/04/06 13:15:04;;;;;;;1.13;1.00;;;;;;;;;;4992941;28;20251;-41
2024/04/06 13:17:30;;;;;;;2.17;1.02;;;;;;;;;;4992616;28;20212;-41
2024/04/06 13:19:56;;;;;;;1.40;0.95;;;;;;;;;;4993909;28;20840;-42
2024/04/06 13:22:22;;;;;;;1.20;1.10;;;;;;;;;;4992837;28;20188;-41
2024/04/06 13:24:48;;;;;;;2.45;1.05;;;;;;;;;;4993373;28;20260;-41
2024/04/06 13:27:14;;;;;;;2.10;1.00;;;;;;;;;;4994025;28;20290;-41
2024/04/06 13:29:40;;;;;;;1.35;0.95;;;;;;;;;;4990656;28;20572;-41
2024/04/06 13:32:06;;;;;;;0.95;0.88;;;;;;;;;;4993463;28;20204;-41
2024/04/06 13:34:34;;;;;;;2.65;1.02;;;;;;;;;;4999558;28;20247;-41
2024/04/06 13:37:00;;;;;;;1.38;1.13;;;;;;;;;;4994328;28;20184;-41
2024/04/06 13:39:26;;;;;;;2.08;1.08;;;;;;;;;;4996388;28;20185;-41
2024/04/06 13:41:52;;;;;;;1.33;0.90;;;;;;;;;;4993667;28;20327;-41
2024/04/06 13:44:18;;;;;;;0.50;0.50;;;;;;;;;;4992760;28;20507;-41
2024/04/06 13:46:44;;;;;;;1.08;0.98;;;;;;;;;;5000039;28;20185;-41
2024/04/06 13:49:10;;;;;;;1.52;0.80;;;;;;;;;;4991434;28;20197;-42
2024/04/06 13:51:37;;;;;;;0.77;0.65;;;;;;;;;;4998400;28;20279;-42
2024/04/06 13:54:06;;;;;;;0.73;0.63;;;;;;;;;;4994625;28;20569;-42
2024/04/06 13:56:35;;;;;;;3.03;1.00;;;;;;;;;;4994766;28;20212;-41
2024/04/06 13:59:03;;;;;;;1.02;0.82;;;;;;;;;;4998728;28;20334;-42
2024/04/06 14:01:29;;;;;;;1.00;0.90;;;;;;;;;;4992444;28;20191;-41
2024/04/06 14:03:55;;;;;;;0.70;0.65;;;;;;;;;;4992782;28;20189;-42
2024/04/06 14:06:21;;;;;;;1.02;0.80;;;;;;;;;;4998872;28;20187;-41
2024/04/06 14:08:46;;;;;;;1.00;0.90;;;;;;;;;;4992461;28;20497;-41
2024/04/06 14:11:12;;;;;;;1.17;0.90;;;;;;;;;;4990692;28;20189;-41
2024/04/06 14:13:40;;;;;;;2.15;0.90;;;;;;;;;;4991913;28;20224;-42
2024/04/06 14:16:07;;;;;;;1.50;0.90;;;;;;;;;;4998064;28;20271;-42
2024/04/06 14:18:34;;;;;;;1.30;0.85;;;;;;;;;;4991722;28;20191;-41
2024/04/06 14:21:00;;;;;;;1.70;0.70;;;;;;;;;;4992665;28;20200;-42
2024/04/06 14:23:25;;;;;;;1.25;0.88;;;;;;;;;;4989970;28;20216;-41
2024/04/06 14:25:51;;;;;;;1.45;0.90;;;;;;;;;;4994047;28;20225;-41
2024/04/06 14:28:17;;;;;;;1.05;0.70;;;;;;;;;;4993580;28;20292;-41
2024/04/06 14:30:43;;;;;;;1.88;0.80;;;;;;;;;;4991069;28;20185;-42
2024/04/06 14:33:09;;;;;;;0.75;0.70;;;;;;;;;;4998368;28;20584;-42
2024/04/06 14:35:35;;;;;;;1.33;0.88;;;;;;;;;;4996087;28;20228;-42
2024/04/06 14:38:02;;;;;;;1.52;0.68;;;;;;;;;;4995033;28;20220;-42